Wetterdaten: Dienstag, 04.05.2021
Datum Zeit Außen Temp. Server Temp. +20m Feuchte Feuchte +20m Luftdruck Regen Wind Richtung Richtung Sonnenschein Helligkeit Solar Taupunkt
04.05.2021 00:00 7,6 °C 13,5 °C 7,2 °C 54 % 37 % 1012,3 hPa 0,00 l/m² 8,1 km/h (2 Bft) S-SO±45° 150 ° 0 min 0 lux 0 W/m² -1,1 °C
04.05.2021 00:15 7,5 °C 13,5 °C 7,3 °C 55 % 37 % 1012,3 hPa 0,00 l/m² 6,3 km/h (2 Bft) SO±67.5° 140 ° 0 min 0 lux 0 W/m² -0,9 °C
04.05.2021 00:30 7,5 °C 13,4 °C 7,3 °C 55 % 37 % 1012,3 hPa 0,00 l/m² 8,3 km/h (2 Bft) S±45° 190 ° 0 min 0 lux 0 W/m² -0,9 °C
04.05.2021 00:45 7,7 °C 13,3 °C 7,9 °C 54 % 35 % 1011,2 hPa 0,00 l/m² 16,0 km/h (3 Bft) SO±22.5° 140 ° 0 min 0 lux 0 W/m² -1,0 °C
04.05.2021 01:00 8,3 °C 13,2 °C 8,5 °C 52 % 33 % 1011,2 hPa 0,00 l/m² 19,0 km/h (3 Bft) SO±45° 145 ° 0 min 0 lux 0 W/m² -1,0 °C
04.05.2021 01:15 8,4 °C 13,0 °C 8,5 °C 53 % 33 % 1011,1 hPa 0,00 l/m² 24,3 km/h (4 Bft) SO±45° 140 ° 0 min 0 lux 0 W/m² -0,6 °C
04.05.2021 01:30 8,4 °C 12,9 °C 8,5 °C 53 % 34 % 1010,1 hPa 0,00 l/m² 17,6 km/h (3 Bft) SO±45° 140 ° 0 min 0 lux 0 W/m² -0,6 °C
04.05.2021 01:45 8,4 °C 12,9 °C 8,6 °C 53 % 34 % 1010,1 hPa 0,00 l/m² 18,5 km/h (3 Bft) S-SO±67.5 155 ° 0 min 0 lux 0 W/m² -0,6 °C
04.05.2021 02:00 8,4 °C 12,8 °C 8,6 °C 54 % 34 % 1010,1 hPa 0,00 l/m² 16,7 km/h (3 Bft) S±45° 170 ° 0 min 0 lux 0 W/m² -0,4 °C
04.05.2021 02:15 8,5 °C 12,7 °C 8,7 °C 54 % 34 % 1009,1 hPa 0,00 l/m² 20,5 km/h (4 Bft) S-SO±45° 150 ° 0 min 0 lux 0 W/m² -0,3 °C
04.05.2021 02:30 8,5 °C 12,7 °C 8,6 °C 54 % 34 % 1009,1 hPa 0,00 l/m² 16,3 km/h (3 Bft) SO±22.5° 145 ° 0 min 0 lux 0 W/m² -0,3 °C
04.05.2021 02:45 8,5 °C 12,6 °C 8,8 °C 54 % 34 % 1008,0 hPa 0,00 l/m² 20,2 km/h (4 Bft) S-SO±45° 160 ° 0 min 0 lux 0 W/m² -0,3 °C
04.05.2021 03:00 8,7 °C 12,6 °C 9,0 °C 53 % 33 % 1008,0 hPa 0,00 l/m² 23,2 km/h (4 Bft) S-SO±45° 150 ° 0 min 0 lux 0 W/m² -0,3 °C
04.05.2021 03:15 8,8 °C 12,5 °C 9,1 °C 53 % 33 % 1008,0 hPa 0,00 l/m² 20,2 km/h (4 Bft) S-SO±22.5 160 ° 0 min 0 lux 0 W/m² -0,2 °C
04.05.2021 03:30 8,9 °C 12,4 °C 9,2 °C 52 % 33 % 1007,0 hPa 0,00 l/m² 21,4 km/h (4 Bft) S-SO±45° 150 ° 0 min 0 lux 0 W/m² -0,4 °C
04.05.2021 03:45 8,8 °C 12,4 °C 9,0 °C 53 % 33 % 1007,0 hPa 0,00 l/m² 20,6 km/h (4 Bft) S-SO±45° 160 ° 0 min 0 lux 0 W/m² -0,2 °C
04.05.2021 04:00 8,8 °C 12,4 °C 9,0 °C 53 % 33 % 1005,9 hPa 0,00 l/m² 20,6 km/h (4 Bft) S-SO±45° 155 ° 0 min 0 lux 0 W/m² -0,2 °C
04.05.2021 04:15 8,9 °C 12,4 °C 9,1 °C 53 % 33 % 1005,9 hPa 0,00 l/m² 22,4 km/h (4 Bft) SO±45° 145 ° 0 min 0 lux 0 W/m² -0,1 °C
04.05.2021 04:30 8,9 °C 12,3 °C 9,2 °C 52 % 33 % 1004,9 hPa 0,00 l/m² 25,8 km/h (4 Bft) SO±45° 145 ° 0 min 0 lux 0 W/m² -0,4 °C
04.05.2021 04:45 9,0 °C 12,3 °C 9,2 °C 52 % 33 % 1004,9 hPa 0,00 l/m² 32,5 km/h (5 Bft) S-SO±45° 150 ° 0 min 0 lux 0 W/m² -0,3 °C
04.05.2021 05:00 8,9 °C 12,3 °C 9,0 °C 53 % 33 % 1004,9 hPa 0,00 l/m² 26,4 km/h (4 Bft) S-SO±45° 150 ° 0 min 0 lux 0 W/m² -0,1 °C
04.05.2021 05:15 8,8 °C 12,3 °C 8,9 °C 54 % 34 % 1003,9 hPa 0,00 l/m² 27,5 km/h (4 Bft) SO±45° 140 ° 0 min 0 lux 0 W/m² 0,0 °C
04.05.2021 05:30 9,0 °C 12,3 °C 9,4 °C 53 % 33 % 1002,8 hPa 0,00 l/m² 25,8 km/h (4 Bft) S-SO±67.5 150 ° 0 min 0 lux 0 W/m² -0,1 °C
04.05.2021 05:45 9,3 °C 12,2 °C 9,6 °C 52 % 32 % 1002,8 hPa 0,00 l/m² 27,0 km/h (4 Bft) S±45° 175 ° 0 min 105 lux 0 W/m² -0,0 °C
04.05.2021 06:00 9,4 °C 12,2 °C 9,8 °C 52 % 32 % 1002,8 hPa 0,00 l/m² 31,3 km/h (5 Bft) S±45° 175 ° 0 min 282 lux 2 W/m² 0,1 °C
04.05.2021 06:15 9,7 °C 12,2 °C 9,9 °C 51 % 32 % 1001,7 hPa 0,00 l/m² 34,8 km/h (5 Bft) S-SO±67.5 160 ° 0 min 658 lux 4 W/m² 0,1 °C
04.05.2021 06:31 9,7 °C 12,2 °C 10,0 °C 51 % 31 % 1001,7 hPa 0,00 l/m² 33,7 km/h (5 Bft) S±45° 180 ° 0 min 949 lux 6 W/m² 0,1 °C
04.05.2021 06:45 9,7 °C 12,3 °C 9,9 °C 51 % 31 % 1001,7 hPa 0,00 l/m² 33,4 km/h (5 Bft) S±45° 170 ° 0 min 1,22 klux 8 W/m² 0,1 °C
04.05.2021 07:00 9,8 °C 12,4 °C 10,1 °C 51 % 31 % 1000,7 hPa 0,00 l/m² 27,8 km/h (4 Bft) S±45° 185 ° 0 min 1,90 klux 12 W/m² 0,2 °C
04.05.2021 07:15 9,9 °C 12,5 °C 10,1 °C 51 % 31 % 1000,7 hPa 0,00 l/m² 26,9 km/h (4 Bft) S±45° 190 ° 0 min 2,14 klux 14 W/m² 0,2 °C
04.05.2021 07:30 9,9 °C 12,6 °C 10,3 °C 52 % 31 % 1000,7 hPa 0,00 l/m² 25,8 km/h (4 Bft) SW±67.5° 220 ° 0 min 2,35 klux 15 W/m² 0,5 °C
04.05.2021 07:45 10,1 °C 12,7 °C 10,7 °C 50 % 30 % 1000,7 hPa 0,00 l/m² 33,2 km/h (5 Bft) SW±67.5° 225 ° 0 min 4,09 klux 27 W/m² 0,2 °C
04.05.2021 08:00 10,6 °C 12,7 °C 11,0 °C 48 % 28 % 1000,6 hPa 0,00 l/m² 30,4 km/h (5 Bft) SW±45° 230 ° 0 min 4,21 klux 27 W/m² 0,1 °C
04.05.2021 08:15 10,5 °C 12,7 °C 10,9 °C 49 % 29 % 1000,6 hPa 0,00 l/m² 35,8 km/h (5 Bft) SW±67.5° 215 ° 0 min 3,85 klux 25 W/m² 0,2 °C
04.05.2021 08:30 10,1 °C 12,8 °C 10,3 °C 55 % 33 % 1000,7 hPa 0,00 l/m² 41,1 km/h (6 Bft) SW±67.5° 235 ° 0 min 5,83 klux 38 W/m² 1,5 °C
04.05.2021 08:45 9,7 °C 12,8 °C 10,0 °C 56 % 35 % 1000,7 hPa 0,00 l/m² 33,6 km/h (5 Bft) SW±22.5° 230 ° 0 min 5,22 klux 34 W/m² 1,4 °C
04.05.2021 09:00 9,7 °C 12,9 °C 10,0 °C 58 % 36 % 1000,7 hPa 0,00 l/m² 43,2 km/h (6 Bft) SW±67.5° 230 ° 0 min 7,80 klux 51 W/m² 1,8 °C
04.05.2021 09:15 9,6 °C 12,8 °C 10,0 °C 59 % 37 % 1000,7 hPa 0,00 l/m² 36,6 km/h (5 Bft) SW±67.5° 225 ° 0 min 11,7 klux 76 W/m² 2,0 °C
04.05.2021 09:30 9,7 °C 12,8 °C 9,8 °C 59 % 38 % 1000,7 hPa 0,00 l/m² 32,7 km/h (5 Bft) S-SW±67.5 210 ° 0 min 14,7 klux 96 W/m² 2,1 °C
04.05.2021 09:45 10,3 °C 12,9 °C 11,3 °C 60 % 37 % 1000,6 hPa 0,00 l/m² 35,5 km/h (5 Bft) SW±45° 225 ° 15 min 50,2 klux 327 W/m² 2,9 °C
04.05.2021 10:00 10,3 °C 13,0 °C 10,5 °C 60 % 37 % 1000,6 hPa 0,00 l/m² 40,1 km/h (6 Bft) SW±45° 220 ° 0 min 32,4 klux 211 W/m² 2,9 °C
04.05.2021 10:15 10,1 °C 13,1 °C 10,2 °C 60 % 39 % 1000,7 hPa 0,00 l/m² 44,8 km/h (6 Bft) SW±45° 220 ° 0 min 23,0 klux 150 W/m² 2,7 °C
04.05.2021 10:30 9,6 °C 13,1 °C 9,7 °C 62 % 41 % 1000,7 hPa 0,00 l/m² 45,4 km/h (6 Bft) SW±45° 215 ° 0 min 12,9 klux 84 W/m² 2,7 °C
04.05.2021 10:45 9,8 °C 13,2 °C 10,2 °C 62 % 40 % 1000,7 hPa 0,00 l/m² 35,8 km/h (5 Bft) SW±45° 225 ° 0 min 20,0 klux 130 W/m² 2,9 °C
04.05.2021 11:00 10,1 °C 13,2 °C 10,3 °C 61 % 39 % 999,6 hPa 0,00 l/m² 31,3 km/h (5 Bft) SW±45° 215 ° 0 min 16,2 klux 106 W/m² 2,9 °C
04.05.2021 11:15 9,8 °C 13,2 °C 10,0 °C 62 % 41 % 999,7 hPa 0,00 l/m² 36,8 km/h (5 Bft) S-SW±45° 205 ° 0 min 10,8 klux 70 W/m² 2,9 °C
04.05.2021 11:30 9,9 °C 13,2 °C 10,1 °C 63 % 41 % 999,6 hPa 0,00 l/m² 36,6 km/h (5 Bft) S-SW±45° 210 ° 0 min 10,5 klux 68 W/m² 3,2 °C
04.05.2021 11:45 9,9 °C 13,2 °C 10,1 °C 63 % 41 % 999,6 hPa 0,00 l/m² 31,8 km/h (5 Bft) S-SW±67.5 210 ° 0 min 7,78 klux 51 W/m² 3,2 °C
04.05.2021 12:00 9,9 °C 13,2 °C 10,2 °C 63 % 42 % 999,6 hPa 0,00 l/m² 34,9 km/h (5 Bft) SW±67.5° 225 ° 0 min 9,6 klux 62 W/m² 3,2 °C
04.05.2021 12:15 9,9 °C 13,2 °C 10,2 °C 64 % 42 % 999,6 hPa 0,00 l/m² 39,8 km/h (6 Bft) SW±67.5° 225 ° 0 min 9,5 klux 62 W/m² 3,4 °C
04.05.2021 12:30 10,0 °C 13,2 °C 10,4 °C 65 % 42 % 999,6 hPa 0,00 l/m² 38,6 km/h (5 Bft) SW±67.5° 220 ° 0 min 11,9 klux 78 W/m² 3,7 °C
04.05.2021 12:45 10,4 °C 13,2 °C 10,8 °C 63 % 41 % 999,6 hPa 0,00 l/m² 33,0 km/h (5 Bft) SW±22.5° 230 ° 0 min 19,8 klux 129 W/m² 3,7 °C
04.05.2021 13:00 10,5 °C 13,2 °C 10,8 °C 63 % 41 % 999,6 hPa 0,00 l/m² 41,3 km/h (6 Bft) SW±45° 230 ° 0 min 16,4 klux 107 W/m² 3,8 °C
04.05.2021 13:15 10,6 °C 13,3 °C 11,3 °C 63 % 40 % 999,6 hPa 0,00 l/m² 43,2 km/h (6 Bft) SW±45° 230 ° 0 min 41,8 klux 272 W/m² 3,9 °C
04.05.2021 13:30 11,8 °C 13,4 °C 12,3 °C 60 % 37 % 998,4 hPa 0,00 l/m² 48,7 km/h (6 Bft) SW±45° 225 ° 15 min 69,8 klux 455 W/m² 4,3 °C
04.05.2021 13:45 11,2 °C 13,5 °C 11,3 °C 61 % 38 % 998,5 hPa 0,00 l/m² 39,2 km/h (6 Bft) SW±45° 225 ° 0 min 20,2 klux 132 W/m² 4,0 °C
04.05.2021 14:00 11,2 °C 13,6 °C 11,9 °C 60 % 37 % 998,5 hPa 0,00 l/m² 50,3 km/h (7 Bft) SW±45° 215 ° 0 min 33,6 klux 219 W/m² 3,7 °C
04.05.2021 14:15 11,8 °C 13,6 °C 12,3 °C 59 % 35 % 998,4 hPa 0,00 l/m² 42,7 km/h (6 Bft) SW±45° 220 ° 0 min 33,7 klux 220 W/m² 4,1 °C
04.05.2021 14:30 12,0 °C 13,8 °C 12,4 °C 59 % 35 % 997,4 hPa 0,00 l/m² 52,4 km/h (7 Bft) SW±45° 225 ° 15 min 49,4 klux 322 W/m² 4,2 °C
04.05.2021 14:45 11,6 °C 13,9 °C 12,0 °C 59 % 37 % 997,4 hPa 0,00 l/m² 43,7 km/h (6 Bft) SW±45° 225 ° 0 min 23,2 klux 151 W/m² 3,9 °C
04.05.2021 15:00 12,6 °C 14,0 °C 13,3 °C 57 % 33 % 997,3 hPa 0,00 l/m² 44,9 km/h (6 Bft) SW±67.5° 230 ° 15 min 48,1 klux 313 W/m² 4,3 °C
04.05.2021 15:15 11,9 °C 14,0 °C 12,3 °C 59 % 35 % 997,4 hPa 0,00 l/m² 56,0 km/h (7 Bft) W-SW±45° 245 ° 0 min 19,5 klux 127 W/m² 4,1 °C
04.05.2021 15:30 12,1 °C 14,2 °C 12,7 °C 58 % 35 % 997,3 hPa 0,00 l/m² 38,8 km/h (5 Bft) SW±45° 215 ° 0 min 32,8 klux 214 W/m² 4,1 °C
04.05.2021 15:45 12,5 °C 14,3 °C 12,2 °C 57 % 37 % 997,3 hPa 0,00 l/m² 41,9 km/h (6 Bft) SW±45° 235 ° 15 min 41,5 klux 270 W/m² 4,2 °C
04.05.2021 16:00 9,8 °C 14,3 °C 10,1 °C 73 % 48 % 998,6 hPa 0,17 l/m² 47,3 km/h (6 Bft) SW±67.5° 225 ° 0 min 6,43 klux 42 W/m² 5,2 °C
04.05.2021 16:15 10,4 °C 14,3 °C 11,6 °C 75 % 53 % 998,6 hPa 0,28 l/m² 38,6 km/h (5 Bft) SW±45° 225 ° 15 min 91,9 klux 599 W/m² 6,2 °C
04.05.2021 16:30 11,3 °C 14,3 °C 12,4 °C 72 % 48 % 998,5 hPa 0,00 l/m² 31,9 km/h (5 Bft) SW±45° 235 ° 15 min 68,8 klux 448 W/m² 6,4 °C
04.05.2021 16:45 11,5 °C 14,3 °C 13,0 °C 70 % 47 % 998,4 hPa 0,00 l/m² 34,8 km/h (5 Bft) SW±45° 225 ° 15 min 77,5 klux 505 W/m² 6,2 °C
04.05.2021 17:00 12,3 °C 14,5 °C 13,3 °C 66 % 42 % 997,3 hPa 0,00 l/m² 32,0 km/h (5 Bft) SW±67.5° 230 ° 15 min 69,3 klux 451 W/m² 6,1 °C
04.05.2021 17:15 12,5 °C 14,6 °C 13,1 °C 60 % 37 % 997,3 hPa 0,00 l/m² 30,2 km/h (5 Bft) SW±67.5° 230 ° 15 min 71,5 klux 466 W/m² 5,0 °C
04.05.2021 17:30 12,5 °C 14,7 °C 13,4 °C 57 % 34 % 997,3 hPa 0,00 l/m² 48,6 km/h (6 Bft) W±45° 275 ° 15 min 63,4 klux 413 W/m² 4,2 °C
04.05.2021 17:45 12,7 °C 14,9 °C 13,6 °C 53 % 30 % 997,3 hPa 0,05 l/m² 37,1 km/h (5 Bft) W±67.5° 280 ° 15 min 58,1 klux 378 W/m² 3,4 °C
04.05.2021 18:00 13,2 °C 15,0 °C 13,9 °C 50 % 28 % 997,2 hPa 0,00 l/m² 32,6 km/h (5 Bft) W-NW±67.5 285 ° 15 min 47,1 klux 307 W/m² 3,0 °C
04.05.2021 18:15 13,4 °C 15,1 °C 13,4 °C 46 % 26 % 997,2 hPa 0,00 l/m² 30,2 km/h (5 Bft) W-NW±67.5 285 ° 15 min 47,5 klux 309 W/m² 2,0 °C
04.05.2021 18:30 13,1 °C 15,2 °C 13,5 °C 47 % 26 % 997,2 hPa 0,00 l/m² 38,4 km/h (5 Bft) NW±45° 305 ° 15 min 43,0 klux 280 W/m² 2,0 °C
04.05.2021 18:45 13,1 °C 15,2 °C 13,5 °C 45 % 25 % 997,2 hPa 0,00 l/m² 31,6 km/h (5 Bft) NW±67.5° 305 ° 15 min 39,4 klux 257 W/m² 1,4 °C
04.05.2021 19:00 13,5 °C 15,3 °C 15,4 °C 44 % 22 % 997,2 hPa 0,00 l/m² 32,5 km/h (5 Bft) W-NW±67.5 295 ° 15 min 35,2 klux 229 W/m² 1,5 °C
04.05.2021 19:15 13,5 °C 15,4 °C 15,1 °C 43 % 22 % 997,2 hPa 0,00 l/m² 40,9 km/h (6 Bft) W-NW±67.5 300 ° 15 min 28,6 klux 186 W/m² 1,2 °C
04.05.2021 19:30 13,7 °C 15,4 °C 14,5 °C 40 % 19 % 997,2 hPa 0,00 l/m² 46,9 km/h (6 Bft) NW±45° 315 ° 15 min 28,2 klux 184 W/m² 0,4 °C
04.05.2021 19:45 13,1 °C 15,5 °C 13,9 °C 40 % 18 % 997,2 hPa 0,00 l/m² 42,9 km/h (6 Bft) W±45° 275 ° 15 min 20,2 klux 132 W/m² -0,2 °C
04.05.2021 20:00 12,1 °C 15,5 °C 12,5 °C 41 % 22 % 997,3 hPa 0,00 l/m² 65,5 km/h (8 Bft) W-SW±67.5 255 ° 15 min 14,6 klux 95 W/m² -0,7 °C
04.05.2021 20:15 11,7 °C 15,4 °C 11,8 °C 44 % 26 % 997,4 hPa 0,00 l/m² 35,4 km/h (5 Bft) W-NW±45° 295 ° 0 min 2,77 klux 18 W/m² -0,1 °C
04.05.2021 20:30 11,4 °C 15,3 °C 11,4 °C 47 % 29 % 998,5 hPa 0,00 l/m² 30,5 km/h (5 Bft) NW±45° 305 ° 15 min 2,19 klux 14 W/m² 0,5 °C
04.05.2021 20:45 10,6 °C 15,2 °C 10,3 °C 56 % 36 % 998,5 hPa 0,00 l/m² 53,8 km/h (7 Bft) NW±45° 310 ° 0 min 828 lux 0 W/m² 2,2 °C
04.05.2021 21:00 10,0 °C 15,1 °C 10,0 °C 56 % 36 % 998,6 hPa 0,00 l/m² 26,7 km/h (4 Bft) NW±45° 305 ° 0 min 384 lux 0 W/m² 1,6 °C
04.05.2021 21:15 9,5 °C 15,0 °C 9,5 °C 56 % 36 % 998,7 hPa 0,00 l/m² 29,6 km/h (5 Bft) NW±67.5° 310 ° 0 min 149 lux 0 W/m² 1,2 °C
04.05.2021 21:30 9,3 °C 14,8 °C 9,4 °C 58 % 37 % 999,7 hPa 0,00 l/m² 18,3 km/h (3 Bft) W-NW±45° 295 ° 0 min 11 lux 0 W/m² 1,5 °C
04.05.2021 21:45 9,3 °C 14,7 °C 9,6 °C 59 % 37 % 999,7 hPa 0,00 l/m² 29,6 km/h (5 Bft) W-SW±67.5 255 ° 0 min 0 lux 0 W/m² 1,7 °C
04.05.2021 22:00 9,3 °C 14,6 °C 9,5 °C 57 % 35 % 999,7 hPa 0,00 l/m² 38,1 km/h (5 Bft) W-NW±67.5 300 ° 0 min 0 lux 0 W/m² 1,2 °C
04.05.2021 22:15 9,1 °C 14,5 °C 9,2 °C 58 % 37 % 999,7 hPa 0,00 l/m² 34,7 km/h (5 Bft) W-NW±67.5 300 ° 0 min 0 lux 0 W/m² 1,3 °C
04.05.2021 22:30 8,9 °C 14,4 °C 9,0 °C 59 % 38 % 999,7 hPa 0,00 l/m² 39,1 km/h (6 Bft) W-NW±67.5 295 ° 0 min 0 lux 0 W/m² 1,3 °C
04.05.2021 22:45 8,7 °C 14,3 °C 8,8 °C 61 % 39 % 999,8 hPa 0,00 l/m² 24,5 km/h (4 Bft) NW±67.5° 310 ° 0 min 0 lux 0 W/m² 1,6 °C
04.05.2021 23:00 8,6 °C 14,2 °C 8,7 °C 61 % 40 % 999,8 hPa 0,00 l/m² 12,4 km/h (3 Bft) W±67.5° 265 ° 0 min 0 lux 0 W/m² 1,5 °C
04.05.2021 23:15 8,5 °C 14,2 °C 8,5 °C 62 % 42 % 999,8 hPa 0,00 l/m² 10,5 km/h (2 Bft) W-SW±67.5 250 ° 0 min 0 lux 0 W/m² 1,6 °C
04.05.2021 23:30 8,5 °C 14,2 °C 8,5 °C 63 % 42 % 999,8 hPa 0,00 l/m² 32,4 km/h (5 Bft) W±45° 280 ° 0 min 0 lux 0 W/m² 1,9 °C
04.05.2021 23:45 8,5 °C 14,1 °C 8,7 °C 62 % 40 % 999,8 hPa 0,00 l/m² 34,6 km/h (5 Bft) W-NW±67.5 285 ° 0 min 0 lux 0 W/m² 1,6 °C
_ Min-Zeit 00:15 05:45 00:00 19:30 19:45 19:30 - 00:15 - - - - - 00:00
Minimum _ 7,5 °C 12,2 °C 7,2 °C 40 % 18 % 997,2 hPa - 6,3 km/h (2 Bft) - - - - - -1,1 °C
_ Max-Zeit 19:30 19:45 19:00 16:15 16:15 00:15 16:15 20:00 - - 09:45 16:15 16:15 16:30
Maximum _ 13,7 °C 15,5 °C 15,4 °C 75 % 53 % 1012,3 hPa 0,28 l/m² 65,5 km/h
W-SW (8 Bft)
- - 15 min 91,9 klux 599 W/m² 6,4 °C
Durchschnitt _ 10,2 °C 13,6 °C 10,5 °C 56 % 35 % 1001,4 hPa #0,50 l/m² 32,6 km/h (5 Bft) SW - #5:30 h 16,1 klux 171 W/m² 1,7 °C